Steamboat Springs, Colorado
Current Conditions -  °F | °C
As of 11:34 AM on Thursday 23 Oct 2014 (Local Time) from KSBS Reporting Station
Clear Clear  
Wind Chill: 51°   Ceiling: Unl
Heat Index: 51°   Visibility: 10mi
Dew Point: 37°   Wind: 0mph
Humidity: 59%   Direction: NA
Pressure: 30.3"   Gusts: NA
Location:  40.49°N, 106.83°W
Report Text: KSBS 231734Z AUTO 00000KT 10SM CLR 10/03 A3030 RMK AO1 T01040026
Loading
Personal Weather Stations






























Interactive Weather Map
Tropical Storm Tracking
New forecast layout! Learn more

10-Day Weather Forecast

Advertisements
Track Severe Weather on mobile